Timeline UpdatesTrip UpdatesNews PostsPvt PostsTravel TipsAdmin PostsConv PostsFollowed PostsChat RequestsBlog PostsPNR Posts

Disclaimer
Search
 
 
Thu Oct 2, 2014 20:00:42 ISTHomeTrainsΣChainsAtlasPNRForumGalleryNewsFAQTripsMembersLoginFeedback
No Recent News for this Train
Other Trains in the News **new
Latest...
⇐ Return Journey: Train# 54378

54377/Prayag-Bareilly Passenger (UnReserved)

Time-Table HAS CHANGED.
Sep 03 (9:27AM)
Change Departure Station:
Change Arrival Station:
Post a Train Travel TipPost a Train Travel Tip **new
Post a Comment/Question/Picture/VideoPost a Comment/Question/Picture/Video
Pantry/Catering
???
RSA - Rake Sharing
Rake/Coach Composition
Loco
News    PNR    Forum    Time-Table    Availability    Fare Chart    Map    Arr/Dep History    Trips    Gallery    ΣChains    X/O    Timeline    
Travel Time: 5h 23m    22 halts    Distance: 150 km    Avg Speed: 27 km/hr
Type: Passenger
Zone: NR/Northern
Departs @ 10:27 (Avg 1h 11m late)
Platform# ???
SMTWTFS
Masit/MST 
Arrives @ 15:50 (Avg 48m late)
Platform# 3
SMTWTFS
Bareilly Junction/BE 

22 halts. 24 intermediate Stations between Masit and Bareilly Junction

Show ALL intermediate Stations  Show Old Time-Table

#CodeStation NameX/OArrivesAvgDepartsAvgHaltPFDay#KmSpeedElevZoneAddress
1ARPAtrampur  02:25 01:01+2602:26 01:03+261 2m--1-258.553105mNRAtrampur Railway Station, Uttar Pradesh
2RMCRam Chaura Road  02:34 01:11+2502:35 01:13+251 2m--1-251.552103mNRAnapur - Mansurabad Road, Uttar Pradesh
3LGOLalgopalGanj  02:43 01:21+2502:44 01:23+251 2m--1-244.655104mNRLal Gopalganj, Uttar Pradesh
4BHDRBhadri  02:52 01:31+2502:53 01:33+251 2m--1-237.243106mNRNational Highway 24B, Uttar Pradesh
5KHNMKunda Harnamganj (2)  03:02 01:43+2303:03 01:45+241 2m--1-230.147110mNRKunda, Uttar Pradesh
6GRMRGarhi Manikpur  03:15 02:00+2503:16 02:02+261 2m--1-218.339113mNRGarhi Manikpur, Uttar Pradesh
7PQNPariawan Kalakankar Road  03:25 02:13+2503:26 02:15+251 2m--1-211.143115mNRPwn Klaknder Rd, Uttar Pradesh
8ARKAArkha  03:35 02:27+2503:36 02:29+251 2m--1-202.515115mNRLucknow Allahabad Rd, Uttar Pradesh
9UCRUnchahar Junction  03:44 02:38+2203:45 02:40+241 2m--1-200.252116mNRUnchahar, Uttar Pradesh
10RCPRamachandrapur  03:56 02:53-03:57 02:55-1 2m--1-189.028114mNRLucknow Allahabad Rd, Uttar Pradesh
11LMNLachhmanpurX  04:05 03:08+2604:06 03:10+261 2m--1-183.032119mNRUnchahar, Uttar Pradesh
12DYPDaryapur Junction  04:19 03:38+2504:20 03:40+291 2m--1-168.318115mNRNational Highway 24B, Uttar Pradesh
13RBLRae Bareli Junction (4)X  04:35 04:00+2704:40 04:33+335 33m--1-162.446116mNRRaebareli, Uttar Pradesh
14GANGGangaGanj (2)  04:51 04:43+2604:52 04:45+311 2m--1-154.760118mNRBachhrawan, Uttar Pradesh
15HCPHarchandpur (3)  04:58 04:52+3404:59 04:54+381 2m--1-147.642118mNRRae Bareli, Uttar Pradesh
16KVGKundanganj (2)  05:07 05:03+3405:08 05:05+401 2m--1-141.352119mNRHarchandpur, Uttar Pradesh
17BCNBachhrawan (2)X  05:19 05:16+4005:20 05:18+411 2m--1-131.714124mNRLucknow, Uttar Pradesh
18SAGRShrirajnagar (1)X  05:44 05:43+2705:45+301 2m11-126.020122mNRMohanlalGanj, Uttar Pradesh
19NHNNigohan (1)X  06:04 06:03+2206:05+331 2m11-120.119120mNRLucknow, Uttar Pradesh
20KKAHKankaha (1)  06:28 06:27+2006:29+301 2m11-113.140125mNRBachhrawan, Uttar Pradesh
21MLJMohanlalGanj (1)  06:42 06:41+2906:43+331 2m11-105.132124mNRMohanlalganj, Uttar Pradesh
22UTRUtraitia Junction (2)  07:00 06:59+3007:01+331 2m--1-96.719124mNRLucknow, Uttar Pradesh
23BHAWBlock Hut A new halt!!X  07:15+907:17+102m--1-92.219121mNRLucknow, Uttar Pradesh
24LBHDilkusha Cabin new halt!!  07:28+907:30+92m--1-88.717116mNRLucknow, Uttar Pradesh
25LKOLucknow Charbagh NR (9)XO  07:45+2308:20+2035m51-84.523123mNR226004, Uttar Pradesh
26AMGAlamnagar (3)X  08:37 08:38+2408:38 08:39+281m--1-77.565126mNRLucknow, Uttar Pradesh
27KKJKakori (3)X  08:47 08:46+4208:48+441 2m--1-69.964129mNRSH 25, Uttar Pradesh
28MLDMalihabadX  08:58 08:57+4408:59+501 2m--1-60.349130mNRMalihabad, Uttar Pradesh
29DILDilawarnagarX  09:07 09:06+5009:08+511 2m--1-54.646133mNRSH 25, Uttar Pradesh
30RBDRahimabadX  09:17 09:18+5209:18 09:20+561 2m--1-47.066132mNRSH 25, Uttar Pradesh
31SANSandila (3)  09:29 09:30+5609:30 09:32+581 2m--1-36.045132mNRSandila, Uttar Pradesh
32UTAUmar TaliO  09:36 09:39+5809:37 09:41+591 2m--1-30.748135mNRHardoi, Uttar Pradesh
33DLQDalelnagar  09:46 09:49+5709:47 09:51+1:081 2m--1-24.352136mNRSH 25, Uttar Pradesh
34BLMBalamau Junction (4)X  09:53 10:01+1:1109:58 10:06+1:135m--1-15.758139mNRBalamau, Uttar Pradesh
35BGHBaghauliX  10:11 10:15+1:0810:12 10:17+1:091 2m--1-6.952141mNRsharda nehar, Uttar Pradesh
36MSTMasit»  10:21 10:25+1:1010:22 10:27+1:111 2m--10.056141mNRSH 25, Uttar Pradesh
37KARKarnaX  10:31 10:35+1:1010:32 10:37+1:111 2m--17.559143mNRHardoi, Uttar Pradesh
38HRIHardoi (5)  10:43 10:47+4110:44 10:52+431 5m--117.456146mNRHardoi, Uttar Pradesh
39KUFKaurhaX  10:57 11:01+1:1510:58 11:03+1:161 2m--125.859148mNRSH 25, Uttar Pradesh
40BEGBehtagokul  11:08 11:12+1:1411:09 11:14+1:141 2m--134.655152mNRBehtagokul, Uttar Pradesh
41TDPTodarpur  11:17 11:21+1:1511:18 11:23+1:161 2m--141.131147mNRSH 25, Uttar Pradesh
42SHRMSharmaX  11:24 11:28-11:25 11:29-1m--143.651150mNRSH 25, Uttar Pradesh
43AJIAnjhi ShahabadX  11:32 11:36+1:1411:33 11:38+1:151 2m--149.554148mNRAnjhi Shahabad, Uttar Pradesh
44AIGAlgawan  11:41 11:45+1:1511:42 11:47+1:161 2m--155.864152mNRAlgawan, Uttar Pradesh
45KHKahiliya  11:51 11:55+1:1411:52 11:57+1:181 2m--164.444152mNRSH 25, Uttar Pradesh
46PRPMPt Ram Prasad Bismil new halt!!  12:03-12:04-1m--168.88154mNRState Highway 25, Uttar Pradesh
47ROZARoza Junction (4)X  12:36 12:37+5012:37 12:39+1:211 2m--172.948156mNRShahjahanpur, Uttar Pradesh
48SXKShahjahanpur CourtX  12:45 12:46+1512:46 12:47+151m--178.67160mNRShahjahanpur, Uttar Pradesh
49SPNShahjahanpur Junction (3)X  12:55+1913:00+185m--179.556156mNRShahjahanpur, Uttar Pradesh
50BTRABanthraO  13:09+1:2213:10 13:11+1:351 2m--187.942154mNRNH 24, Uttar Pradesh
51BHDHBahadurpur HaltX  13:17 13:19-13:18 13:20-1m--193.535154mNRNH 24, Uttar Pradesh
52TLHTilhar  13:25 13:27+1:3213:26 13:29+1:331 2m--197.758163mNRTilhar, Uttar Pradesh
53MKMiranpur Katra  13:36 13:39+1:3313:37 13:41+1:361 2m--1107.439162mNRShahjahanpur, Uttar Pradesh
54BLPUBilpur  13:46 13:52+1:3613:47 13:54+1:451 2m--1114.647161mNRFatehganj, Uttar Pradesh
55TSATisuaXO  13:56 14:03+1:4413:57 14:04+1:451m--1121.651165mNRNational Highway 24, Uttar Pradesh
56PMRPitambarpur  14:07 14:14+1:3314:08 14:16+1:371 2m--1130.157171mNRPitambarpur, Uttar Pradesh
57RYSRasuriyaX  14:18 14:26+1:3214:19 14:28+1:331 2m--1139.650174mNRNH 24, Uttar Pradesh
58CHTIChanehti Junction  14:28 14:36+1:2214:29 14:38+1:231 2m--1146.33168mNRBareilly, Uttar Pradesh
59BEBareilly Junction (4)•  15:10 15:50+48-31150.0-174mNRBareilly, Uttar Pradesh
Scroll to Top
Scroll to Bottom